createdAt,value
2023-04-16T00:01:12.038Z,99.05
2023-04-16T00:03:43.318Z,99.02
2023-04-16T00:06:14.615Z,98.75
2023-04-16T00:08:45.042Z,98.51
2023-04-16T00:11:14.993Z,98.23
2023-04-16T00:13:47.276Z,97.97
2023-04-16T00:16:18.382Z,97.85
2023-04-16T00:18:49.420Z,97.48
2023-04-16T00:21:20.398Z,97.24
2023-04-16T00:23:50.943Z,97.01
2023-04-16T00:26:21.314Z,96.84
2023-04-16T00:28:52.994Z,96.66
2023-04-16T00:31:31.186Z,96.69
2023-04-16T00:34:08.895Z,96.84
2023-04-16T00:36:40.406Z,96.94
2023-04-16T00:39:11.889Z,97.13
2023-04-16T00:41:42.434Z,97.34
2023-04-16T00:44:14.037Z,97.53
2023-04-16T00:46:45.922Z,97.70
2023-04-16T00:49:18.266Z,97.48
2023-04-16T00:51:50.521Z,97.35
2023-04-16T00:54:21.860Z,97.46
2023-04-16T00:56:54.446Z,97.03
2023-04-16T00:59:25.297Z,96.78
2023-04-16T01:01:58.999Z,96.45
2023-04-16T01:04:32.012Z,96.26
2023-04-16T01:07:03.583Z,96.05
2023-04-16T01:09:40.820Z,95.96
2023-04-16T01:12:13.232Z,96.04
2023-04-16T01:14:44.027Z,96.45
2023-04-16T01:17:15.270Z,96.45
2023-04-16T01:19:46.483Z,96.56
2023-04-16T01:22:17.704Z,96.87
2023-04-16T01:24:47.948Z,97.24
2023-04-16T01:27:19.381Z,97.52
2023-04-16T01:29:51.525Z,97.48
2023-04-16T01:32:28.703Z,97.42
2023-04-16T01:34:59.379Z,97.59
2023-04-16T01:37:30.455Z,97.84
2023-04-16T01:40:03.317Z,98.00
2023-04-16T01:42:34.397Z,98.19
2023-04-16T01:45:05.356Z,98.31
2023-04-16T01:47:36.776Z,98.19
2023-04-16T01:50:08.284Z,98.28
2023-04-16T01:52:38.518Z,98.28
2023-04-16T01:55:09.573Z,98.41
2023-04-16T01:57:41.516Z,98.60
2023-04-16T02:00:12.588Z,98.58
2023-04-16T02:02:50.359Z,98.84
2023-04-16T02:05:28.408Z,98.93
2023-04-16T02:08:01.125Z,98.83
2023-04-16T02:10:34.114Z,98.88
2023-04-16T02:13:05.393Z,99.01
2023-04-16T02:15:36.067Z,98.85
2023-04-16T02:18:06.819Z,98.94
2023-04-16T02:20:42.838Z,99.03
2023-04-16T02:23:16.231Z,99.03
2023-04-16T02:25:49.547Z,99.04
2023-04-16T02:28:21.365Z,99.24
2023-04-16T02:30:52.805Z,98.92
2023-04-16T02:33:27.052Z,98.85
2023-04-16T02:36:02.130Z,98.66
2023-04-16T02:38:32.839Z,98.60
2023-04-16T02:41:02.889Z,98.55
2023-04-16T02:43:33.167Z,98.46
2023-04-16T02:46:03.090Z,98.62
2023-04-16T02:48:34.231Z,98.71
2023-04-16T02:51:05.534Z,98.74
2023-04-16T02:53:36.157Z,98.68
2023-04-16T02:56:06.736Z,98.74
2023-04-16T02:58:36.552Z,98.77
2023-04-16T03:01:08.174Z,98.80
2023-04-16T03:03:38.978Z,99.03
2023-04-16T03:06:09.144Z,99.12
2023-04-16T03:08:39.385Z,99.00
2023-04-16T03:11:10.493Z,99.05
2023-04-16T03:13:41.867Z,98.97
2023-04-16T03:16:13.151Z,98.87
2023-04-16T03:18:43.169Z,98.86
2023-04-16T03:21:12.937Z,98.88
2023-04-16T03:23:43.164Z,98.74
2023-04-16T03:26:13.403Z,98.72
2023-04-16T03:28:51.137Z,98.73
2023-04-16T03:31:21.728Z,99.10
2023-04-16T03:33:51.946Z,99.21
2023-04-16T03:36:24.012Z,99.25
2023-04-16T03:38:55.500Z,99.17
2023-04-16T03:41:26.373Z,99.29
2023-04-16T03:43:56.182Z,99.23
2023-04-16T03:46:27.125Z,99.05
2023-04-16T03:48:57.723Z,98.78
2023-04-16T03:51:29.224Z,98.59
2023-04-16T03:53:59.589Z,98.52
2023-04-16T03:56:30.328Z,98.43
2023-04-16T03:59:00.952Z,98.36
2023-04-16T04:01:31.448Z,98.11
2023-04-16T04:04:01.623Z,97.95
2023-04-16T04:06:32.011Z,97.99
2023-04-16T04:09:02.295Z,98.01
2023-04-16T04:11:35.256Z,97.76
2023-04-16T04:14:07.470Z,97.70
2023-04-16T04:16:39.115Z,97.60
2023-04-16T04:19:09.790Z,97.48
2023-04-16T04:21:41.662Z,97.59
2023-04-16T04:24:12.138Z,97.61
2023-04-16T04:26:42.197Z,97.86
2023-04-16T04:29:13.368Z,97.83
2023-04-16T04:31:44.211Z,97.75
2023-04-16T04:34:14.306Z,97.77
2023-04-16T04:36:44.760Z,97.88
2023-04-16T04:39:16.276Z,98.09
2023-04-16T04:41:47.549Z,98.14
2023-04-16T04:44:18.817Z,98.15
2023-04-16T04:46:49.469Z,98.35
2023-04-16T04:49:19.234Z,98.37
2023-04-16T04:51:51.073Z,98.19
2023-04-16T04:54:21.755Z,98.21
2023-04-16T04:56:53.586Z,98.44
2023-04-16T04:59:24.954Z,98.77
2023-04-16T05:01:55.800Z,99.18
2023-04-16T05:04:26.327Z,99.31
2023-04-16T05:06:56.687Z,99.32
2023-04-16T05:09:26.493Z,99.24
2023-04-16T05:11:58.956Z,99.34
2023-04-16T05:14:29.829Z,99.49
2023-04-16T05:16:59.742Z,99.63
2023-04-16T05:19:30.711Z,99.81
2023-04-16T05:22:00.905Z,99.85
2023-04-16T05:24:31.570Z,99.96
2023-04-16T05:27:01.764Z,99.99
2023-04-16T05:29:31.755Z,99.99
2023-04-16T05:32:01.661Z,99.99
2023-04-16T05:34:32.738Z,99.99
2023-04-16T05:37:03.081Z,99.99
2023-04-16T05:39:38.240Z,99.99
2023-04-16T05:42:08.110Z,99.99
2023-04-16T05:44:38.716Z,99.99
2023-04-16T05:47:10.597Z,99.99
2023-04-16T05:49:41.347Z,99.99
2023-04-16T05:52:11.468Z,99.99
2023-04-16T05:54:42.099Z,99.99
2023-04-16T05:57:20.911Z,99.99
2023-04-16T05:59:51.498Z,99.99
2023-04-16T06:02:22.454Z,99.99
2023-04-16T06:04:54.216Z,99.99
2023-04-16T06:07:23.958Z,99.99
2023-04-16T06:09:54.954Z,99.99
2023-04-16T06:12:25.020Z,99.99
2023-04-16T06:14:54.756Z,99.99
2023-04-16T06:17:24.978Z,99.99
2023-04-16T06:19:55.251Z,99.99
2023-04-16T06:22:26.742Z,99.99
2023-04-16T06:24:56.965Z,99.99
2023-04-16T06:27:27.073Z,99.99
2023-04-16T06:30:00.384Z,99.99
2023-04-16T06:32:31.333Z,99.99
2023-04-16T06:35:01.402Z,99.99
2023-04-16T06:37:32.026Z,99.99
2023-04-16T06:40:02.956Z,99.99
2023-04-16T06:42:33.951Z,99.99
2023-04-16T06:45:04.067Z,99.99
2023-04-16T06:47:33.828Z,99.99
2023-04-16T06:50:05.399Z,99.99
2023-04-16T06:52:36.212Z,99.99
2023-04-16T06:55:06.875Z,99.99
2023-04-16T06:57:37.923Z,99.99
2023-04-16T07:00:09.153Z,99.99
2023-04-16T07:02:39.996Z,99.99
2023-04-16T07:05:10.266Z,99.99
2023-04-16T07:07:40.092Z,99.99
2023-04-16T07:10:11.235Z,99.99
2023-04-16T07:12:42.677Z,99.99
2023-04-16T07:15:14.342Z,99.99
2023-04-16T07:17:44.399Z,99.99
2023-04-16T07:20:16.727Z,99.99
2023-04-16T07:22:47.474Z,99.99
2023-04-16T07:25:18.168Z,99.99
2023-04-16T07:27:48.504Z,99.93
2023-04-16T07:30:20.822Z,99.90
2023-04-16T07:32:51.525Z,99.94
2023-04-16T07:35:21.416Z,99.98
2023-04-16T07:37:51.299Z,99.95
2023-04-16T07:40:21.702Z,99.99
2023-04-16T07:42:52.408Z,99.99
2023-04-16T07:45:22.814Z,99.99
2023-04-16T07:47:52.749Z,99.93
2023-04-16T07:50:23.096Z,99.95
2023-04-16T07:52:53.720Z,99.99
2023-04-16T07:55:23.540Z,99.99
2023-04-16T07:57:54.241Z,99.99
2023-04-16T08:00:24.114Z,99.99
2023-04-16T08:02:54.460Z,99.99
2023-04-16T08:05:24.446Z,99.99
2023-04-16T08:07:55.051Z,99.99
2023-04-16T08:10:25.669Z,99.99
2023-04-16T08:12:55.622Z,99.99
2023-04-16T08:15:25.920Z,99.99
2023-04-16T08:17:56.929Z,99.99
2023-04-16T08:20:27.752Z,99.99
2023-04-16T08:22:57.510Z,99.99
2023-04-16T08:25:27.556Z,99.99
2023-04-16T08:27:57.580Z,99.99
2023-04-16T08:30:28.329Z,99.99
2023-04-16T08:32:58.569Z,99.99
2023-04-16T08:35:28.992Z,99.99
2023-04-16T08:38:02.389Z,99.99
2023-04-16T08:40:34.015Z,99.99
2023-04-16T08:43:07.414Z,99.99
2023-04-16T08:45:40.145Z,99.99
2023-04-16T08:48:12.980Z,99.99
2023-04-16T08:50:43.367Z,99.99
2023-04-16T08:53:19.955Z,99.99
2023-04-16T08:55:52.673Z,99.99
2023-04-16T08:58:24.326Z,99.99
2023-04-16T09:00:55.175Z,99.99
2023-04-16T09:03:25.684Z,99.99
2023-04-16T09:05:58.729Z,99.99
2023-04-16T09:08:30.604Z,99.99
2023-04-16T09:11:01.692Z,99.99
2023-04-16T09:13:34.050Z,99.99
2023-04-16T09:16:05.561Z,99.99
2023-04-16T09:18:35.798Z,99.99
2023-04-16T09:21:05.901Z,99.99
2023-04-16T09:23:36.892Z,99.99
2023-04-16T09:26:08.759Z,99.99
2023-04-16T09:28:49.889Z,99.99
2023-04-16T09:31:21.146Z,99.99
2023-04-16T09:34:11.578Z,99.99
2023-04-16T09:36:42.312Z,99.99
2023-04-16T09:39:23.701Z,99.99
2023-04-16T09:41:55.908Z,99.99
2023-04-16T09:44:38.890Z,99.99
2023-04-16T09:47:11.618Z,99.99
2023-04-16T09:49:45.046Z,99.99
2023-04-16T09:52:23.977Z,99.99
2023-04-16T09:54:55.912Z,99.99
2023-04-16T09:57:27.324Z,99.99
2023-04-16T10:00:04.394Z,99.99
2023-04-16T10:02:35.798Z,99.99
2023-04-16T10:05:08.690Z,99.99
2023-04-16T10:07:39.548Z,99.99
2023-04-16T10:10:10.328Z,99.99
2023-04-16T10:12:40.567Z,99.99
2023-04-16T10:15:12.116Z,99.99
2023-04-16T10:17:45.484Z,99.99
2023-04-16T10:20:18.211Z,99.99
2023-04-16T10:22:48.533Z,99.99
2023-04-16T10:25:19.680Z,99.99
2023-04-16T10:27:51.224Z,99.99
2023-04-16T10:30:21.477Z,99.99
2023-04-16T10:32:52.186Z,99.99
2023-04-16T10:35:23.201Z,99.99
2023-04-16T10:37:59.079Z,99.99
2023-04-16T10:40:30.567Z,99.99
2023-04-16T10:43:02.603Z,99.80
2023-04-16T10:45:38.673Z,98.86
2023-04-16T10:48:11.055Z,98.48
2023-04-16T10:50:42.586Z,97.92
2023-04-16T10:53:29.119Z,98.03
2023-04-16T10:56:16.680Z,97.57
2023-04-16T10:58:47.040Z,96.83
2023-04-16T11:01:17.923Z,96.68
2023-04-16T11:03:51.178Z,95.89
2023-04-16T11:06:29.151Z,96.00
2023-04-16T11:09:00.560Z,94.85
2023-04-16T11:11:40.713Z,93.70
2023-04-16T11:14:12.486Z,90.01
2023-04-16T11:16:43.473Z,84.92
2023-04-16T11:19:19.012Z,81.23
2023-04-16T11:21:49.400Z,78.00
2023-04-16T11:24:19.350Z,79.85
2023-04-16T11:26:53.460Z,76.37
2023-04-16T11:29:24.807Z,71.45
2023-04-16T11:31:57.558Z,69.38
2023-04-16T11:34:28.244Z,66.86
2023-04-16T11:37:00.529Z,66.10
2023-04-16T11:39:31.216Z,65.67
2023-04-16T11:42:00.960Z,67.45
2023-04-16T11:44:31.968Z,67.06
2023-04-16T11:47:08.746Z,66.59
2023-04-16T11:49:40.449Z,65.42
2023-04-16T11:52:10.827Z,65.04
2023-04-16T11:54:40.645Z,64.14
2023-04-16T11:57:11.406Z,66.82
2023-04-16T12:00:02.585Z,65.97
2023-04-16T12:02:54.255Z,70.85
2023-04-16T12:05:42.924Z,76.09
2023-04-16T12:08:14.749Z,78.79
2023-04-16T12:10:58.714Z,79.90
2023-04-16T12:13:29.004Z,80.36
2023-04-16T12:16:00.130Z,81.48
2023-04-16T12:18:31.002Z,79.93
2023-04-16T12:21:00.909Z,79.90
2023-04-16T12:23:32.340Z,78.01
2023-04-16T12:26:11.425Z,76.99
2023-04-16T12:28:43.355Z,76.47
2023-04-16T12:31:15.739Z,72.38
2023-04-16T12:33:54.645Z,70.15
2023-04-16T12:36:25.731Z,67.74
2023-04-16T12:38:56.464Z,66.09
2023-04-16T12:41:27.843Z,66.01
2023-04-16T12:44:10.190Z,67.83
2023-04-16T12:46:44.406Z,66.09
2023-04-16T12:49:14.983Z,64.64
2023-04-16T12:51:45.331Z,63.81
2023-04-16T12:54:15.145Z,64.69
2023-04-16T12:56:45.393Z,64.85
2023-04-16T12:59:15.228Z,64.84
2023-04-16T13:01:46.820Z,65.27
2023-04-16T13:04:17.798Z,65.63
2023-04-16T13:06:48.444Z,69.71
2023-04-16T13:09:19.194Z,68.22
2023-04-16T13:11:52.418Z,67.51
2023-04-16T13:14:23.247Z,68.26
2023-04-16T13:16:54.087Z,69.31
2023-04-16T13:19:23.786Z,68.18
2023-04-16T13:21:55.760Z,67.97
2023-04-16T13:24:26.981Z,68.42
2023-04-16T13:26:58.132Z,68.31
2023-04-16T13:29:28.355Z,68.37
2023-04-16T13:31:58.804Z,70.83
2023-04-16T13:34:29.258Z,71.77
2023-04-16T13:36:59.006Z,71.12
2023-04-16T13:39:29.693Z,71.96
2023-04-16T13:41:59.431Z,70.75
2023-04-16T13:44:29.974Z,65.51
2023-04-16T13:47:01.867Z,65.42
2023-04-16T13:49:35.802Z,66.21
2023-04-16T13:52:07.073Z,61.97
2023-04-16T13:54:37.042Z,61.53
2023-04-16T13:57:08.796Z,60.42
2023-04-16T13:59:40.440Z,59.11
2023-04-16T14:02:12.345Z,62.05
2023-04-16T14:04:43.142Z,61.94
2023-04-16T14:07:13.920Z,64.66
2023-04-16T14:09:45.152Z,61.38
2023-04-16T14:12:15.468Z,64.24
2023-04-16T14:14:45.407Z,60.96
2023-04-16T14:17:15.601Z,60.19
2023-04-16T14:19:45.660Z,60.92
2023-04-16T14:22:18.913Z,58.79
2023-04-16T14:24:49.199Z,60.54
2023-04-16T14:27:18.936Z,63.53
2023-04-16T14:29:49.840Z,65.49
2023-04-16T14:32:20.518Z,65.60
2023-04-16T14:34:52.239Z,66.78
2023-04-16T14:37:22.890Z,66.31
2023-04-16T14:39:53.461Z,65.52
2023-04-16T14:42:23.927Z,65.52
2023-04-16T14:44:54.059Z,64.53
2023-04-16T14:47:23.911Z,65.63
2023-04-16T14:49:54.710Z,65.15
2023-04-16T14:52:25.476Z,64.34
2023-04-16T14:54:57.334Z,66.39
2023-04-16T14:57:28.042Z,64.31
2023-04-16T14:59:58.118Z,64.90
2023-04-16T15:02:31.189Z,58.91
2023-04-16T15:05:02.623Z,60.22
2023-04-16T15:07:34.052Z,63.29
2023-04-16T15:10:05.008Z,60.73
2023-04-16T15:12:36.408Z,58.65
2023-04-16T15:15:11.796Z,61.11
2023-04-16T15:17:42.642Z,64.68
2023-04-16T15:20:13.075Z,65.60
2023-04-16T15:22:44.630Z,68.07
2023-04-16T15:25:15.651Z,69.85
2023-04-16T15:27:45.721Z,70.02
2023-04-16T15:30:15.662Z,68.74
2023-04-16T15:32:46.670Z,71.40
2023-04-16T15:35:18.394Z,71.40
2023-04-16T15:37:48.499Z,71.53
2023-04-16T15:40:19.917Z,70.80
2023-04-16T15:42:50.624Z,72.16
2023-04-16T15:45:22.335Z,71.24
2023-04-16T15:47:53.748Z,72.62
2023-04-16T15:50:23.562Z,71.74
2023-04-16T15:52:55.291Z,70.84
2023-04-16T15:55:27.360Z,69.96
2023-04-16T15:57:59.172Z,70.06
2023-04-16T16:00:29.173Z,68.88
2023-04-16T16:03:00.676Z,68.68
2023-04-16T16:05:31.533Z,67.90
2023-04-16T16:08:03.219Z,68.22
2023-04-16T16:10:33.418Z,66.24
2023-04-16T16:13:06.603Z,67.36
2023-04-16T16:15:38.404Z,66.86
2023-04-16T16:18:08.734Z,64.39
2023-04-16T16:20:38.596Z,64.32
2023-04-16T16:23:08.985Z,64.59
2023-04-16T16:25:39.499Z,65.53
2023-04-16T16:28:09.848Z,64.60
2023-04-16T16:30:39.673Z,64.66
2023-04-16T16:33:10.819Z,60.62
2023-04-16T16:35:41.250Z,63.69
2023-04-16T16:38:12.119Z,65.55
2023-04-16T16:40:42.255Z,65.47
2023-04-16T16:43:12.324Z,66.11
2023-04-16T16:45:43.319Z,67.01
2023-04-16T16:48:15.133Z,68.02
2023-04-16T16:50:45.515Z,64.76
2023-04-16T16:53:15.302Z,60.74
2023-04-16T16:55:45.584Z,59.10
2023-04-16T16:58:15.329Z,55.72
2023-04-16T17:00:45.531Z,58.18
2023-04-16T17:03:15.444Z,61.50
2023-04-16T17:05:46.321Z,60.62
2023-04-16T17:08:16.729Z,64.92
2023-04-16T17:10:47.045Z,64.45
2023-04-16T17:13:20.876Z,60.69
2023-04-16T17:15:51.590Z,63.54
2023-04-16T17:18:21.543Z,62.29
2023-04-16T17:20:52.621Z,59.99
2023-04-16T17:23:23.153Z,57.71
2023-04-16T17:25:52.966Z,58.10
2023-04-16T17:28:23.788Z,54.69
2023-04-16T17:30:57.311Z,54.67
2023-04-16T17:33:27.682Z,53.55
2023-04-16T17:35:57.432Z,51.36
2023-04-16T17:38:28.128Z,56.48
2023-04-16T17:40:58.866Z,54.91
2023-04-16T17:43:29.696Z,52.56
2023-04-16T17:46:00.009Z,47.76
2023-04-16T17:48:30.677Z,49.25
2023-04-16T17:51:00.932Z,54.82
2023-04-16T17:53:32.066Z,59.13
2023-04-16T17:56:02.727Z,59.88
2023-04-16T17:58:34.116Z,59.62
2023-04-16T18:01:07.411Z,55.26
2023-04-16T18:03:38.247Z,59.02
2023-04-16T18:06:08.883Z,66.74
2023-04-16T18:08:39.014Z,68.76
2023-04-16T18:11:11.731Z,71.17
2023-04-16T18:13:44.659Z,72.80
2023-04-16T18:16:19.124Z,74.96
2023-04-16T18:18:49.830Z,76.30
2023-04-16T18:21:20.767Z,77.51
2023-04-16T18:23:51.850Z,78.65
2023-04-16T18:26:22.948Z,79.28
2023-04-16T18:28:53.407Z,80.43
2023-04-16T18:31:24.191Z,81.95
2023-04-16T18:33:58.101Z,82.44
2023-04-16T18:36:28.680Z,82.38
2023-04-16T18:39:01.713Z,82.64
2023-04-16T18:41:34.451Z,83.01
2023-04-16T18:44:05.086Z,83.59
2023-04-16T18:46:35.504Z,84.19
2023-04-16T18:49:05.597Z,85.24
2023-04-16T18:51:36.918Z,85.37
2023-04-16T18:54:07.938Z,84.89
2023-04-16T18:56:38.273Z,85.92
2023-04-16T18:59:08.666Z,86.20
2023-04-16T19:01:39.154Z,88.02
2023-04-16T19:04:10.761Z,87.63
2023-04-16T19:06:42.747Z,88.48
2023-04-16T19:09:15.305Z,88.93
2023-04-16T19:11:45.905Z,89.85
2023-04-16T19:14:16.738Z,91.59
2023-04-16T19:16:48.858Z,92.61
2023-04-16T19:19:19.380Z,93.49
2023-04-16T19:21:50.446Z,94.33
2023-04-16T19:24:23.374Z,95.08
2023-04-16T19:26:55.253Z,95.17
2023-04-16T19:29:25.643Z,95.64
2023-04-16T19:31:55.536Z,96.00
2023-04-16T19:34:26.728Z,96.73
2023-04-16T19:36:58.207Z,97.09
2023-04-16T19:39:32.812Z,97.09
2023-04-16T19:42:03.391Z,96.95
2023-04-16T19:44:35.212Z,97.07
2023-04-16T19:47:08.016Z,96.46
2023-04-16T19:49:39.236Z,95.76
2023-04-16T19:52:09.410Z,95.34
2023-04-16T19:54:40.252Z,95.37
2023-04-16T19:57:11.578Z,95.69
2023-04-16T19:59:41.881Z,95.73
2023-04-16T20:02:13.296Z,95.35
2023-04-16T20:04:44.338Z,95.64
2023-04-16T20:07:15.380Z,96.12
2023-04-16T20:09:45.808Z,95.99
2023-04-16T20:12:16.022Z,96.40
2023-04-16T20:14:46.815Z,96.51
2023-04-16T20:17:18.966Z,97.04
2023-04-16T20:19:52.344Z,97.15
2023-04-16T20:22:22.892Z,97.61
2023-04-16T20:24:56.108Z,97.69
2023-04-16T20:27:26.675Z,97.60
2023-04-16T20:29:57.123Z,98.43
2023-04-16T20:32:28.114Z,98.28
2023-04-16T20:34:59.354Z,98.26
2023-04-16T20:37:30.674Z,98.37
2023-04-16T20:40:00.834Z,98.38
2023-04-16T20:42:33.343Z,98.49
2023-04-16T20:45:03.591Z,98.46
2023-04-16T20:47:35.689Z,98.37
2023-04-16T20:50:07.744Z,98.38
2023-04-16T20:52:38.339Z,98.01
2023-04-16T20:55:09.202Z,98.07
2023-04-16T20:57:39.353Z,97.99
2023-04-16T21:00:13.010Z,98.20
2023-04-16T21:02:43.785Z,98.38
2023-04-16T21:05:17.447Z,98.76
2023-04-16T21:07:47.605Z,98.96
2023-04-16T21:10:21.327Z,99.28
2023-04-16T21:12:52.136Z,99.33
2023-04-16T21:15:22.464Z,99.39
2023-04-16T21:17:52.294Z,99.48
2023-04-16T21:20:24.946Z,99.61
2023-04-16T21:22:57.928Z,99.49
2023-04-16T21:25:29.378Z,99.56
2023-04-16T21:27:59.788Z,99.53
2023-04-16T21:30:30.415Z,99.74
2023-04-16T21:33:01.203Z,99.99
2023-04-16T21:35:35.922Z,99.99
2023-04-16T21:38:06.728Z,99.99
2023-04-16T21:40:43.389Z,99.99
2023-04-16T21:43:14.795Z,99.99
2023-04-16T21:45:46.262Z,99.99
2023-04-16T21:48:17.167Z,99.99
2023-04-16T21:50:49.340Z,99.99
2023-04-16T21:53:20.417Z,99.99
2023-04-16T21:55:51.542Z,99.99
2023-04-16T21:58:22.586Z,99.99
2023-04-16T22:00:54.941Z,99.99
2023-04-16T22:03:33.243Z,99.99
2023-04-16T22:06:06.898Z,99.99
2023-04-16T22:08:38.454Z,99.99
2023-04-16T22:11:12.761Z,99.99
2023-04-16T22:13:44.669Z,99.99
2023-04-16T22:16:15.609Z,99.99
2023-04-16T22:18:49.560Z,99.99
2023-04-16T22:21:21.808Z,99.99
2023-04-16T22:23:53.256Z,99.99
2023-04-16T22:26:24.671Z,99.99
2023-04-16T22:28:55.770Z,99.99
2023-04-16T22:31:26.930Z,99.99
2023-04-16T22:34:02.860Z,99.99
2023-04-16T22:36:35.016Z,99.99
2023-04-16T22:39:10.264Z,99.99
2023-04-16T22:41:42.107Z,99.99
2023-04-16T22:44:13.790Z,99.99
2023-04-16T22:46:53.841Z,99.99
2023-04-16T22:49:25.210Z,99.99
2023-04-16T22:52:00.027Z,99.99
2023-04-16T22:54:32.843Z,99.99
2023-04-16T22:57:03.895Z,99.99
2023-04-16T22:59:38.601Z,99.99
2023-04-16T23:02:10.171Z,99.99
2023-04-16T23:04:42.423Z,99.99
2023-04-16T23:07:17.446Z,99.99
2023-04-16T23:09:50.091Z,99.99
2023-04-16T23:12:24.966Z,99.99
2023-04-16T23:14:56.735Z,99.99
2023-04-16T23:17:28.165Z,99.99
2023-04-16T23:19:59.385Z,99.99
2023-04-16T23:22:32.456Z,99.99
2023-04-16T23:25:04.515Z,99.99
2023-04-16T23:27:37.177Z,99.99
2023-04-16T23:30:11.932Z,99.99
2023-04-16T23:32:43.732Z,99.99
2023-04-16T23:35:21.660Z,99.99
2023-04-16T23:37:54.277Z,99.99
2023-04-16T23:40:24.998Z,99.99
2023-04-16T23:42:56.547Z,99.99
2023-04-16T23:45:30.875Z,99.99
2023-04-16T23:48:01.423Z,99.99
2023-04-16T23:50:31.734Z,99.99
2023-04-16T23:53:03.866Z,99.99
2023-04-16T23:55:35.548Z,99.99
2023-04-16T23:58:06.285Z,99.99
